< < Back
Terminal Aerodrome Forecast


Current Version              Previous Versions:   1  2  3  4  5  6  7  8  9  

Terminal Aerodrome Forecast

997
FTUS42 KFFC 240500
TAFFTY
TAF
KFTY 240522Z 2406/2506 00000KT P6SM SKC
     FM241100 08006KT P6SM SKC
     FM241300 09010KT P6SM SKC
     FM241700 14006KT P6SM FEW060
     FM242300 16006KT P6SM BKN060=

Latest METAR

849
SAUS70 KWBC 250300 RRN
MTRFTY
METAR KFTY 250253Z 00000KT 10SM CLR 17/12 A2992 RMK AO2 SLP125 T01720117
53007


USA.gov is the U.S. government's official web portal to all federal, state and local government web resources and services.